createdAt,value
2022-10-09T00:01:26.399Z,6.30
2022-10-09T00:03:53.962Z,7.80
2022-10-09T00:06:25.275Z,6.30
2022-10-09T00:08:52.176Z,6.30
2022-10-09T00:11:21.139Z,6.30
2022-10-09T00:13:48.048Z,6.20
2022-10-09T00:16:15.385Z,6.30
2022-10-09T00:18:42.363Z,6.10
2022-10-09T00:21:17.752Z,6.10
2022-10-09T00:23:44.591Z,6.10
2022-10-09T00:26:12.125Z,6.10
2022-10-09T00:28:39.159Z,6.10
2022-10-09T00:31:06.727Z,6.00
2022-10-09T00:33:34.269Z,6.00
2022-10-09T00:36:04.952Z,6.40
2022-10-09T00:38:31.751Z,6.00
2022-10-09T00:40:58.546Z,6.00
2022-10-09T00:43:44.087Z,5.90
2022-10-09T00:46:20.773Z,5.90
2022-10-09T00:48:50.980Z,5.90
2022-10-09T00:51:17.701Z,6.00
2022-10-09T00:53:44.393Z,5.90
2022-10-09T00:56:11.141Z,5.90
2022-10-09T00:58:37.791Z,5.90
2022-10-09T01:01:04.542Z,5.90
2022-10-09T01:03:31.354Z,5.80
2022-10-09T01:05:57.968Z,5.80
2022-10-09T01:08:36.854Z,5.40
2022-10-09T01:11:17.163Z,5.70
2022-10-09T01:13:50.235Z,5.60
2022-10-09T01:16:28.143Z,5.60
2022-10-09T01:19:03.915Z,5.50
2022-10-09T01:21:42.992Z,5.50
2022-10-09T01:24:32.369Z,5.40
2022-10-09T01:26:58.960Z,5.40
2022-10-09T01:29:28.394Z,6.70
2022-10-09T01:31:55.741Z,7.70
2022-10-09T01:34:23.529Z,6.60
2022-10-09T01:36:50.894Z,7.70
2022-10-09T01:39:19.867Z,5.30
2022-10-09T01:41:48.034Z,5.30
2022-10-09T01:44:16.298Z,7.10
2022-10-09T01:46:42.946Z,6.20
2022-10-09T01:49:33.545Z,6.50
2022-10-09T01:52:10.745Z,5.30
2022-10-09T01:54:39.642Z,5.30
2022-10-09T01:57:08.275Z,5.60
2022-10-09T01:59:37.525Z,5.40
2022-10-09T02:02:05.134Z,5.40
2022-10-09T02:04:32.313Z,5.40
2022-10-09T02:06:59.077Z,5.40
2022-10-09T02:09:25.897Z,5.40
2022-10-09T02:11:54.625Z,5.60
2022-10-09T02:14:21.413Z,5.30
2022-10-09T02:16:50.962Z,5.30
2022-10-09T02:19:23.131Z,5.20
2022-10-09T02:21:56.899Z,5.10
2022-10-09T02:24:23.922Z,5.10
2022-10-09T02:26:52.885Z,5.10
2022-10-09T02:29:19.901Z,6.70
2022-10-09T02:31:46.546Z,6.70
2022-10-09T02:34:16.454Z,6.90
2022-10-09T02:36:43.150Z,6.50
2022-10-09T02:39:09.762Z,6.80
2022-10-09T02:41:36.589Z,5.10
2022-10-09T02:44:03.418Z,4.80
2022-10-09T02:46:30.316Z,4.80
2022-10-09T02:48:57.030Z,5.70
2022-10-09T02:51:24.596Z,8.00
2022-10-09T02:53:52.190Z,6.90
2022-10-09T02:56:18.811Z,4.70
2022-10-09T02:58:45.739Z,6.30
2022-10-09T03:01:12.545Z,6.10
2022-10-09T03:03:39.176Z,4.70
2022-10-09T03:06:05.966Z,6.50
2022-10-09T03:08:32.657Z,4.70
2022-10-09T03:10:59.332Z,6.80
2022-10-09T03:13:25.993Z,6.90
2022-10-09T03:15:52.660Z,6.30
2022-10-09T03:18:19.394Z,6.40
2022-10-09T03:20:46.050Z,5.50
2022-10-09T03:23:12.766Z,5.90
2022-10-09T03:25:39.419Z,7.30
2022-10-09T03:28:06.156Z,5.00
2022-10-09T03:30:32.854Z,7.30
2022-10-09T03:32:59.449Z,6.40
2022-10-09T03:35:26.061Z,6.10
2022-10-09T03:37:52.672Z,5.40
2022-10-09T03:40:19.366Z,5.50
2022-10-09T03:42:46.310Z,5.70
2022-10-09T03:45:13.127Z,5.90
2022-10-09T03:47:39.735Z,5.20
2022-10-09T03:50:06.722Z,6.50
2022-10-09T03:52:33.351Z,4.20
2022-10-09T03:55:00.079Z,6.00
2022-10-09T03:57:26.706Z,6.20
2022-10-09T03:59:53.347Z,7.30
2022-10-09T04:02:19.986Z,5.90
2022-10-09T04:04:46.726Z,6.30
2022-10-09T04:07:13.350Z,6.00
2022-10-09T04:09:39.978Z,5.60
2022-10-09T04:12:06.843Z,4.00
2022-10-09T04:14:33.457Z,5.30
2022-10-09T04:17:00.083Z,5.80
2022-10-09T04:19:26.706Z,6.10
2022-10-09T04:21:53.528Z,5.70
2022-10-09T04:24:20.187Z,6.40
2022-10-09T04:26:46.808Z,6.30
2022-10-09T04:29:13.599Z,5.90
2022-10-09T04:31:40.317Z,4.20
2022-10-09T04:34:06.913Z,5.60
2022-10-09T04:36:33.617Z,4.90
2022-10-09T04:39:00.316Z,5.90
2022-10-09T04:41:26.961Z,6.50
2022-10-09T04:43:54.544Z,6.60
2022-10-09T04:46:21.237Z,5.70
2022-10-09T04:48:48.035Z,4.80
2022-10-09T04:51:15.351Z,5.20
2022-10-09T04:53:42.341Z,4.90
2022-10-09T04:56:10.341Z,5.90
2022-10-09T04:58:37.283Z,4.90
2022-10-09T05:01:07.868Z,5.90
2022-10-09T05:03:35.035Z,3.70
2022-10-09T05:06:05.970Z,6.30
2022-10-09T05:08:32.769Z,5.10
2022-10-09T05:11:00.550Z,5.10
2022-10-09T05:13:30.973Z,5.40
2022-10-09T05:16:00.843Z,6.10
2022-10-09T05:18:27.508Z,5.80
2022-10-09T05:20:54.145Z,5.90
2022-10-09T05:23:20.749Z,5.60
2022-10-09T05:25:57.538Z,6.00
2022-10-09T05:28:24.648Z,3.70
2022-10-09T05:30:51.310Z,6.30
2022-10-09T05:33:17.969Z,5.10
2022-10-09T05:35:58.136Z,6.00
2022-10-09T05:38:25.236Z,3.50
2022-10-09T05:40:52.406Z,3.40
2022-10-09T05:43:19.451Z,5.50
2022-10-09T05:45:46.476Z,4.80
2022-10-09T05:48:13.123Z,6.00
2022-10-09T05:50:39.856Z,5.20
2022-10-09T05:53:06.492Z,4.80
2022-10-09T05:55:33.101Z,6.00
2022-10-09T05:57:59.839Z,5.50
2022-10-09T06:00:26.480Z,4.90
2022-10-09T06:02:53.493Z,5.40
2022-10-09T06:05:20.711Z,4.70
2022-10-09T06:07:47.850Z,5.50
2022-10-09T06:10:14.488Z,3.50
2022-10-09T06:12:41.386Z,3.50
2022-10-09T06:15:08.250Z,5.00
2022-10-09T06:17:34.931Z,3.50
2022-10-09T06:20:01.617Z,5.30
2022-10-09T06:22:28.230Z,3.50
2022-10-09T06:24:54.858Z,4.70
2022-10-09T06:27:21.467Z,5.70
2022-10-09T06:29:48.083Z,5.10
2022-10-09T06:32:14.692Z,5.80
2022-10-09T06:34:43.178Z,5.20
2022-10-09T06:37:09.754Z,2.50
2022-10-09T06:39:36.388Z,5.40
2022-10-09T06:42:04.140Z,5.60
2022-10-09T06:44:30.834Z,4.00
2022-10-09T06:46:57.457Z,6.40
2022-10-09T06:49:24.097Z,2.00
2022-10-09T06:51:50.713Z,4.20
2022-10-09T06:54:17.487Z,4.30
2022-10-09T06:56:44.605Z,5.80
2022-10-09T06:59:11.463Z,7.10
2022-10-09T07:01:38.374Z,7.30
2022-10-09T07:04:07.073Z,5.20
2022-10-09T07:06:34.844Z,6.30
2022-10-09T07:09:02.763Z,6.80
2022-10-09T07:11:31.074Z,5.20
2022-10-09T07:13:58.593Z,6.10
2022-10-09T07:16:26.398Z,5.70
2022-10-09T07:18:53.787Z,7.40
2022-10-09T07:21:20.804Z,6.00
2022-10-09T07:23:47.469Z,6.30
2022-10-09T07:26:16.217Z,6.40
2022-10-09T07:28:43.480Z,8.30
2022-10-09T07:31:10.872Z,8.10
2022-10-09T07:33:37.906Z,7.00
2022-10-09T07:36:05.041Z,6.60
2022-10-09T07:38:32.010Z,6.70
2022-10-09T07:41:02.934Z,7.70
2022-10-09T07:43:30.119Z,6.90
2022-10-09T07:46:04.529Z,9.20
2022-10-09T07:48:31.405Z,7.10
2022-10-09T07:50:58.015Z,7.20
2022-10-09T07:53:24.658Z,8.80
2022-10-09T07:55:51.409Z,9.00
2022-10-09T07:58:18.225Z,8.90
2022-10-09T08:00:44.937Z,7.70
2022-10-09T08:03:11.600Z,7.80
2022-10-09T08:05:38.259Z,10.20
2022-10-09T08:08:04.928Z,10.20
2022-10-09T08:10:31.894Z,8.80
2022-10-09T08:12:58.588Z,8.20
2022-10-09T08:15:25.898Z,9.10
2022-10-09T08:17:53.576Z,10.00
2022-10-09T08:20:20.221Z,8.60
2022-10-09T08:22:47.270Z,10.40
2022-10-09T08:25:14.228Z,8.80
2022-10-09T08:27:40.857Z,9.00
2022-10-09T08:30:07.805Z,10.10
2022-10-09T08:32:34.418Z,9.30
2022-10-09T08:35:01.066Z,9.50
2022-10-09T08:37:39.857Z,9.50
2022-10-09T08:40:07.162Z,9.60
2022-10-09T08:42:39.822Z,9.70
2022-10-09T08:45:11.480Z,9.80
2022-10-09T08:47:40.567Z,9.90
2022-10-09T08:50:12.794Z,10.00
2022-10-09T08:52:49.722Z,10.10
2022-10-09T08:55:24.434Z,10.20
2022-10-09T08:57:52.127Z,10.30
2022-10-09T09:00:20.481Z,10.50
2022-10-09T09:03:05.898Z,10.60
2022-10-09T09:05:35.092Z,10.70
2022-10-09T09:08:05.870Z,10.80
2022-10-09T09:10:41.526Z,10.90
2022-10-09T09:13:08.134Z,11.00
2022-10-09T09:15:47.320Z,11.10
2022-10-09T09:18:26.517Z,11.20
2022-10-09T09:21:04.784Z,11.30
2022-10-09T09:23:36.362Z,11.30
2022-10-09T09:26:03.186Z,12.60
2022-10-09T09:28:31.359Z,11.50
2022-10-09T09:31:08.455Z,12.00
2022-10-09T09:33:44.886Z,11.60
2022-10-09T09:36:14.856Z,11.70
2022-10-09T09:39:12.633Z,11.80
2022-10-09T09:41:29.086Z,11.90
2022-10-09T09:43:55.709Z,12.00
2022-10-09T09:46:23.982Z,12.10
2022-10-09T09:48:50.649Z,12.20
2022-10-09T09:51:28.461Z,12.30
2022-10-09T09:53:57.262Z,12.30
2022-10-09T09:57:06.954Z,12.40
2022-10-09T09:59:32.631Z,12.50
2022-10-09T10:02:18.703Z,12.60
2022-10-09T10:04:53.222Z,12.70
2022-10-09T10:07:35.384Z,12.80
2022-10-09T10:10:05.259Z,12.90
2022-10-09T10:12:31.970Z,12.80
2022-10-09T10:14:58.754Z,13.00
2022-10-09T10:17:28.419Z,13.00
2022-10-09T10:19:55.100Z,13.10
2022-10-09T10:22:23.466Z,13.20
2022-10-09T10:24:50.658Z,13.30
2022-10-09T10:27:38.798Z,13.40
2022-10-09T10:30:06.301Z,13.50
2022-10-09T10:32:34.797Z,13.50
2022-10-09T10:35:01.683Z,13.60
2022-10-09T10:37:40.439Z,13.70
2022-10-09T10:40:10.072Z,13.80
2022-10-09T10:42:42.021Z,13.80
2022-10-09T10:45:17.495Z,13.80
2022-10-09T10:47:47.200Z,13.90
2022-10-09T10:50:14.901Z,13.90
2022-10-09T10:52:44.645Z,13.90
2022-10-09T10:55:21.332Z,14.00
2022-10-09T10:58:06.722Z,14.10
2022-10-09T11:00:37.396Z,14.10
2022-10-09T11:03:22.470Z,14.10
2022-10-09T11:05:53.718Z,14.10
2022-10-09T11:08:34.156Z,14.20
2022-10-09T11:11:00.888Z,14.20
2022-10-09T11:13:32.272Z,14.20
2022-10-09T11:16:02.059Z,14.30
2022-10-09T11:18:38.273Z,14.40
2022-10-09T11:21:04.900Z,14.40
2022-10-09T11:23:43.678Z,14.60
2022-10-09T11:26:16.291Z,14.60
2022-10-09T11:28:51.819Z,14.70
2022-10-09T11:31:20.568Z,14.70
2022-10-09T11:33:52.039Z,14.80
2022-10-09T11:36:22.838Z,14.70
2022-10-09T11:38:52.789Z,14.80
2022-10-09T11:41:19.928Z,14.70
2022-10-09T11:43:54.663Z,14.80
2022-10-09T11:46:36.837Z,14.80
2022-10-09T11:49:09.669Z,14.80
2022-10-09T11:51:59.927Z,14.80
2022-10-09T11:54:27.634Z,14.70
2022-10-09T11:56:58.946Z,14.70
2022-10-09T11:59:33.922Z,13.40
2022-10-09T12:02:12.941Z,14.80
2022-10-09T12:04:55.574Z,14.80
2022-10-09T12:07:36.453Z,14.80
2022-10-09T12:10:07.237Z,14.90
2022-10-09T12:12:34.790Z,14.90
2022-10-09T12:15:11.196Z,15.00
2022-10-09T12:17:45.868Z,15.00
2022-10-09T12:20:18.276Z,15.00
2022-10-09T12:23:07.222Z,15.00
2022-10-09T12:25:42.076Z,13.50
2022-10-09T12:28:17.667Z,14.90
2022-10-09T12:30:47.870Z,15.00
2022-10-09T12:33:14.593Z,15.00
2022-10-09T12:35:43.022Z,15.00
2022-10-09T12:38:24.665Z,15.00
2022-10-09T12:40:52.153Z,15.10
2022-10-09T12:43:20.241Z,15.10
2022-10-09T12:45:48.647Z,15.10
2022-10-09T12:48:18.487Z,15.20
2022-10-09T12:50:45.227Z,15.20
2022-10-09T12:53:14.473Z,15.20
2022-10-09T12:55:43.210Z,15.20
2022-10-09T12:58:15.856Z,15.30
2022-10-09T13:00:42.916Z,15.40
2022-10-09T13:03:26.157Z,15.40
2022-10-09T13:05:53.358Z,15.50
2022-10-09T13:08:27.736Z,15.50
2022-10-09T13:10:55.626Z,15.60
2022-10-09T13:13:25.336Z,15.50
2022-10-09T13:15:59.537Z,15.50
2022-10-09T13:18:26.281Z,15.50
2022-10-09T13:21:06.489Z,15.50
2022-10-09T13:23:34.557Z,15.50
2022-10-09T13:26:03.640Z,15.60
2022-10-09T13:28:31.015Z,15.60
2022-10-09T13:31:05.379Z,15.70
2022-10-09T13:33:32.045Z,13.20
2022-10-09T13:35:58.759Z,15.70
2022-10-09T13:38:25.551Z,15.70
2022-10-09T13:40:52.272Z,15.70
2022-10-09T13:43:21.606Z,15.70
2022-10-09T13:45:48.642Z,15.60
2022-10-09T13:48:15.404Z,15.50
2022-10-09T13:50:42.087Z,15.50
2022-10-09T13:53:08.938Z,15.50
2022-10-09T13:55:35.621Z,15.40
2022-10-09T13:58:02.389Z,15.40
2022-10-09T14:00:29.344Z,15.40
2022-10-09T14:02:56.150Z,15.40
2022-10-09T14:05:23.735Z,15.40
2022-10-09T14:07:50.694Z,15.40
2022-10-09T14:10:21.732Z,15.40
2022-10-09T14:12:53.376Z,15.40
2022-10-09T14:15:20.123Z,15.50
2022-10-09T14:17:47.091Z,15.50
2022-10-09T14:20:14.082Z,15.50
2022-10-09T14:22:40.709Z,15.60
2022-10-09T14:25:07.656Z,15.60
2022-10-09T14:30:00.877Z,15.50
2022-10-09T14:32:27.705Z,15.50
2022-10-09T14:34:54.358Z,15.50
2022-10-09T14:37:40.089Z,15.50
2022-10-09T14:40:08.031Z,15.50
2022-10-09T14:42:36.208Z,15.50
2022-10-09T14:45:02.928Z,15.50
2022-10-09T14:47:29.685Z,15.50
2022-10-09T14:49:56.378Z,15.50
2022-10-09T14:52:23.016Z,15.50
2022-10-09T14:54:49.812Z,15.40
2022-10-09T14:57:16.498Z,15.50
2022-10-09T14:59:43.112Z,15.30
2022-10-09T15:02:12.834Z,15.40
2022-10-09T15:04:39.519Z,15.30
2022-10-09T15:07:06.291Z,15.30
2022-10-09T15:09:32.925Z,15.30
2022-10-09T15:11:59.669Z,15.20
2022-10-09T15:14:26.318Z,15.20
2022-10-09T15:16:52.944Z,15.20
2022-10-09T15:19:19.651Z,15.10
2022-10-09T15:21:46.333Z,15.10
2022-10-09T15:24:13.023Z,15.00
2022-10-09T15:26:39.793Z,15.00
2022-10-09T15:29:07.508Z,14.90
2022-10-09T15:31:35.824Z,14.80
2022-10-09T15:34:02.694Z,14.80
2022-10-09T15:36:29.996Z,14.80
2022-10-09T15:38:56.803Z,14.70
2022-10-09T15:41:25.270Z,14.80
2022-10-09T15:43:53.561Z,14.70
2022-10-09T15:46:20.241Z,14.70
2022-10-09T15:48:46.940Z,14.60
2022-10-09T15:51:13.969Z,14.50
2022-10-09T15:53:42.015Z,14.50
2022-10-09T15:56:09.217Z,14.40
2022-10-09T15:58:35.946Z,14.30
2022-10-09T16:01:10.222Z,14.30
2022-10-09T16:03:37.335Z,14.20
2022-10-09T16:06:05.257Z,14.20
2022-10-09T16:08:31.880Z,14.20
2022-10-09T16:10:58.755Z,14.10
2022-10-09T16:13:26.739Z,14.10
2022-10-09T16:15:53.898Z,14.10
2022-10-09T16:18:22.328Z,14.00
2022-10-09T16:20:49.412Z,13.90
2022-10-09T16:23:16.510Z,13.90
2022-10-09T16:25:43.314Z,13.80
2022-10-09T16:28:11.046Z,13.80
2022-10-09T16:30:39.183Z,13.70
2022-10-09T16:33:10.291Z,13.70
2022-10-09T16:35:39.084Z,13.60
2022-10-09T16:38:05.701Z,13.60
2022-10-09T16:40:57.180Z,13.70
2022-10-09T16:43:20.096Z,14.10
2022-10-09T16:45:46.693Z,13.70
2022-10-09T16:48:13.256Z,13.20
2022-10-09T16:50:40.960Z,14.00
2022-10-09T16:53:07.794Z,13.10
2022-10-09T16:55:34.397Z,14.10
2022-10-09T16:58:01.034Z,13.00
2022-10-09T17:00:27.670Z,12.90
2022-10-09T17:02:54.320Z,12.90
2022-10-09T17:05:20.960Z,12.80
2022-10-09T17:07:47.919Z,12.60
2022-10-09T17:10:14.741Z,14.30
2022-10-09T17:12:42.290Z,12.60
2022-10-09T17:15:09.018Z,13.40
2022-10-09T17:17:35.643Z,12.50
2022-10-09T17:20:02.283Z,12.80
2022-10-09T17:22:28.927Z,13.00
2022-10-09T17:24:55.506Z,12.50
2022-10-09T17:27:22.056Z,14.30
2022-10-09T17:29:48.638Z,13.90
2022-10-09T17:32:15.367Z,13.60
2022-10-09T17:34:45.708Z,12.40
2022-10-09T17:37:13.066Z,12.70
2022-10-09T17:39:39.733Z,12.90
2022-10-09T17:42:06.380Z,13.60
2022-10-09T17:44:33.179Z,13.60
2022-10-09T17:47:00.839Z,12.40
2022-10-09T17:49:27.517Z,13.30
2022-10-09T17:51:54.514Z,12.70
2022-10-09T17:54:21.470Z,13.50
2022-10-09T17:56:48.043Z,12.30
2022-10-09T17:59:15.697Z,12.30
2022-10-09T18:01:42.355Z,12.50
2022-10-09T18:04:10.886Z,12.50
2022-10-09T18:06:37.562Z,12.30
2022-10-09T18:09:04.292Z,12.30
2022-10-09T18:11:30.909Z,14.00
2022-10-09T18:13:57.530Z,13.70
2022-10-09T18:16:35.940Z,12.60
2022-10-09T18:19:06.049Z,12.30
2022-10-09T18:21:34.015Z,12.30
2022-10-09T18:24:00.795Z,14.60
2022-10-09T18:26:27.594Z,12.40
2022-10-09T18:28:54.283Z,12.40
2022-10-09T18:31:22.788Z,12.40
2022-10-09T18:33:49.440Z,12.80
2022-10-09T18:36:23.836Z,12.50
2022-10-09T18:38:51.556Z,12.40
2022-10-09T18:41:18.506Z,13.10
2022-10-09T18:43:45.494Z,12.50
2022-10-09T18:46:12.614Z,12.90
2022-10-09T18:48:40.168Z,12.50
2022-10-09T18:51:09.228Z,13.40
2022-10-09T18:53:37.724Z,13.40
2022-10-09T18:56:05.946Z,13.60
2022-10-09T18:58:33.488Z,12.50
2022-10-09T19:01:02.471Z,13.10
2022-10-09T19:03:31.986Z,12.80
2022-10-09T19:05:58.618Z,12.60
2022-10-09T19:08:25.163Z,13.20
2022-10-09T19:10:52.377Z,13.80
2022-10-09T19:13:19.427Z,13.60
2022-10-09T19:15:58.173Z,12.70
2022-10-09T19:18:26.252Z,12.60
2022-10-09T19:20:53.150Z,12.80
2022-10-09T19:23:22.498Z,12.60
2022-10-09T19:25:50.296Z,12.60
2022-10-09T19:28:17.103Z,12.80
2022-10-09T19:30:44.521Z,12.50
2022-10-09T19:33:11.587Z,12.60
2022-10-09T19:35:54.589Z,12.60
2022-10-09T19:38:22.198Z,12.60
2022-10-09T19:40:49.439Z,12.50
2022-10-09T19:43:16.587Z,12.80
2022-10-09T19:45:43.384Z,14.30
2022-10-09T19:48:10.301Z,12.60
2022-10-09T19:50:40.360Z,12.60
2022-10-09T19:53:06.994Z,12.60
2022-10-09T19:55:33.670Z,12.50
2022-10-09T19:58:00.592Z,12.60
2022-10-09T20:00:27.615Z,12.60
2022-10-09T20:02:54.201Z,13.00
2022-10-09T20:05:21.400Z,12.60
2022-10-09T20:07:47.987Z,12.60
2022-10-09T20:10:14.727Z,12.90
2022-10-09T20:12:41.377Z,12.60
2022-10-09T20:15:08.264Z,12.80
2022-10-09T20:17:34.968Z,12.60
2022-10-09T20:20:03.909Z,12.60
2022-10-09T20:22:30.522Z,12.50
2022-10-09T20:24:57.150Z,12.60
2022-10-09T20:27:23.818Z,12.60
2022-10-09T20:29:52.138Z,12.60
2022-10-09T20:32:18.678Z,13.30
2022-10-09T20:34:45.253Z,12.90
2022-10-09T20:37:11.922Z,13.60
2022-10-09T20:39:38.630Z,12.70
2022-10-09T20:42:05.440Z,12.50
2022-10-09T20:44:32.107Z,12.50
2022-10-09T20:46:58.701Z,14.20
2022-10-09T20:49:25.721Z,13.50
2022-10-09T20:51:56.763Z,12.50
2022-10-09T20:54:23.618Z,12.90
2022-10-09T20:56:50.577Z,13.60
2022-10-09T20:59:18.036Z,12.60
2022-10-09T21:01:44.734Z,12.40
2022-10-09T21:04:12.178Z,13.50
2022-10-09T21:06:38.939Z,12.40
2022-10-09T21:09:05.648Z,12.70
2022-10-09T21:11:34.485Z,12.40
2022-10-09T21:14:01.845Z,12.40
2022-10-09T21:16:28.457Z,12.60
2022-10-09T21:18:59.531Z,12.40
2022-10-09T21:21:26.903Z,12.40
2022-10-09T21:23:55.330Z,12.30
2022-10-09T21:26:22.693Z,12.30
2022-10-09T21:28:49.864Z,12.30
2022-10-09T21:31:20.696Z,12.30
2022-10-09T21:33:47.353Z,12.20
2022-10-09T21:36:22.951Z,12.70
2022-10-09T21:38:49.548Z,12.20
2022-10-09T21:41:16.123Z,13.70
2022-10-09T21:43:42.723Z,13.20
2022-10-09T21:46:09.331Z,13.20
2022-10-09T21:48:35.917Z,13.10
2022-10-09T21:51:02.567Z,12.20
2022-10-09T21:53:29.160Z,12.30
2022-10-09T21:55:55.799Z,12.20
2022-10-09T21:58:22.418Z,13.30
2022-10-09T22:00:59.248Z,12.20
2022-10-09T22:03:26.653Z,12.20
2022-10-09T22:05:53.756Z,13.70
2022-10-09T22:08:20.625Z,13.20
2022-10-09T22:10:47.250Z,12.40
2022-10-09T22:13:13.875Z,13.80
2022-10-09T22:15:47.650Z,13.00
2022-10-09T22:18:16.900Z,12.20
2022-10-09T22:20:44.893Z,13.20
2022-10-09T22:23:11.743Z,12.20
2022-10-09T22:25:38.476Z,12.10
2022-10-09T22:28:05.580Z,12.10
2022-10-09T22:30:32.507Z,12.10
2022-10-09T22:32:59.141Z,12.30
2022-10-09T22:35:26.291Z,12.90
2022-10-09T22:37:52.891Z,12.00
2022-10-09T22:40:19.890Z,12.00
2022-10-09T22:42:46.854Z,12.00
2022-10-09T22:45:13.466Z,12.00
2022-10-09T22:47:40.131Z,13.30
2022-10-09T22:50:06.953Z,12.00
2022-10-09T22:52:33.556Z,12.00
2022-10-09T22:55:00.669Z,11.90
2022-10-09T22:57:27.301Z,12.20
2022-10-09T22:59:53.897Z,12.60
2022-10-09T23:02:20.516Z,12.80
2022-10-09T23:04:47.212Z,11.70
2022-10-09T23:07:13.840Z,12.40
2022-10-09T23:09:40.467Z,11.60
2022-10-09T23:12:07.089Z,11.60
2022-10-09T23:14:33.750Z,11.50
2022-10-09T23:17:00.352Z,11.50
2022-10-09T23:19:26.998Z,11.40
2022-10-09T23:21:53.598Z,12.10
2022-10-09T23:24:20.181Z,11.30
2022-10-09T23:26:49.819Z,12.30
2022-10-09T23:29:17.649Z,12.20
2022-10-09T23:31:44.439Z,11.10
2022-10-09T23:34:11.119Z,11.00
2022-10-09T23:36:37.861Z,11.00
2022-10-09T23:39:05.601Z,11.00
2022-10-09T23:41:32.625Z,10.90
2022-10-09T23:43:59.256Z,12.70
2022-10-09T23:46:27.735Z,10.90
2022-10-09T23:48:55.268Z,10.80
2022-10-09T23:51:23.027Z,10.80
2022-10-09T23:53:49.724Z,10.90
2022-10-09T23:56:21.308Z,12.40
2022-10-09T23:58:48.279Z,11.00
